createdAt,value
2019-05-15T00:03:01.474Z,103031.59
2019-05-15T00:06:08.242Z,103028.31
2019-05-15T00:09:11.224Z,103023.42
2019-05-15T00:12:15.164Z,103018.80
2019-05-15T00:15:19.115Z,103018.67
2019-05-15T00:18:23.020Z,103015.44
2019-05-15T00:21:28.820Z,103021.23
2019-05-15T00:24:32.581Z,103026.21
2019-05-15T00:27:38.678Z,103028.42
2019-05-15T00:30:42.157Z,103030.53
2019-05-15T00:33:48.130Z,103020.52
2019-05-15T00:36:51.778Z,103019.58
2019-05-15T00:39:55.871Z,103021.61
2019-05-15T00:42:59.961Z,103024.35
2019-05-15T00:46:04.121Z,103026.52
2019-05-15T00:49:08.804Z,103017.93
2019-05-15T00:52:12.983Z,103023.70
2019-05-15T00:55:19.131Z,103022.33
2019-05-15T00:58:22.858Z,103016.81
2019-05-15T01:01:28.701Z,103013.13
2019-05-15T01:04:33.162Z,103013.59
2019-05-15T01:07:39.243Z,103004.22
2019-05-15T01:10:43.127Z,103012.50
2019-05-15T01:13:48.141Z,103013.52
2019-05-15T01:16:52.319Z,103006.60
2019-05-15T01:19:56.228Z,103004.00
2019-05-15T01:23:01.070Z,103003.14
2019-05-15T01:26:05.370Z,103003.00
2019-05-15T01:29:09.472Z,102997.66
2019-05-15T01:32:13.693Z,103002.45
2019-05-15T01:35:18.133Z,102998.12
2019-05-15T01:38:22.032Z,102999.91
2019-05-15T01:41:28.046Z,102993.84
2019-05-15T01:44:31.616Z,102990.52
2019-05-15T01:47:35.937Z,102980.67
2019-05-15T01:50:39.742Z,102990.58
2019-05-15T01:53:43.712Z,102985.17
2019-05-15T01:56:49.483Z,102977.27
2019-05-15T01:59:57.389Z,102971.10
2019-05-15T02:02:59.364Z,102969.77
2019-05-15T02:06:03.234Z,102964.80
2019-05-15T02:09:08.492Z,102956.91
2019-05-15T02:12:12.311Z,102956.69
2019-05-15T02:15:18.966Z,102960.95
2019-05-15T02:18:23.123Z,102959.99
2019-05-15T02:21:28.861Z,102953.80
2019-05-15T02:24:33.079Z,102958.12
2019-05-15T02:27:39.275Z,102962.47
2019-05-15T02:30:42.798Z,102960.62
2019-05-15T02:33:49.601Z,102959.69
2019-05-15T02:36:52.605Z,102956.91
2019-05-15T02:39:58.990Z,102952.47
2019-05-15T02:43:02.738Z,102960.27
2019-05-15T02:46:09.947Z,102958.72
2019-05-15T02:49:12.442Z,102947.34
2019-05-15T02:52:19.641Z,102952.16
2019-05-15T02:55:22.472Z,102951.69
2019-05-15T02:58:29.179Z,102950.81
2019-05-15T03:01:32.482Z,102951.34
2019-05-15T03:04:39.807Z,102952.59
2019-05-15T03:07:42.679Z,102955.22
2019-05-15T03:10:49.387Z,102961.45
2019-05-15T03:13:52.258Z,102958.23
2019-05-15T03:16:59.332Z,102955.97
2019-05-15T03:20:02.385Z,102956.77
2019-05-15T03:23:09.579Z,102961.17
2019-05-15T03:26:11.957Z,102958.41
2019-05-15T03:29:15.887Z,102959.26
2019-05-15T03:32:32.243Z,102956.63
2019-05-15T03:35:25.633Z,102959.58
2019-05-15T03:38:30.223Z,102958.37
2019-05-15T03:41:34.642Z,102955.17
2019-05-15T03:44:39.518Z,102958.31
2019-05-15T03:47:43.561Z,102953.97
2019-05-15T03:50:48.911Z,102952.85
2019-05-15T03:53:52.993Z,102947.66
2019-05-15T03:56:58.494Z,102940.35
2019-05-15T04:00:02.633Z,102942.98
2019-05-15T04:03:10.281Z,102946.70
2019-05-15T04:06:12.674Z,102946.02
2019-05-15T04:09:18.943Z,102937.55
2019-05-15T04:12:22.651Z,102937.67
2019-05-15T04:15:30.205Z,102938.64
2019-05-15T04:18:33.083Z,102932.10
2019-05-15T04:21:41.383Z,102934.79
2019-05-15T04:24:43.893Z,102936.76
2019-05-15T04:27:49.570Z,102934.91
2019-05-15T04:30:53.423Z,102934.33
2019-05-15T04:33:59.342Z,102933.31
2019-05-15T04:37:03.350Z,102938.89
2019-05-15T04:40:09.455Z,102929.75
2019-05-15T04:43:13.936Z,102937.05
2019-05-15T04:46:19.794Z,102933.01
2019-05-15T04:49:24.785Z,102928.52
2019-05-15T04:52:30.503Z,102925.80
2019-05-15T04:55:35.185Z,102926.16
2019-05-15T04:58:39.960Z,102932.63
2019-05-15T05:01:44.069Z,102934.77
2019-05-15T05:04:49.356Z,102944.10
2019-05-15T05:07:53.832Z,102941.67
2019-05-15T05:10:59.117Z,102941.11
2019-05-15T05:14:08.488Z,102937.01
2019-05-15T05:17:11.866Z,102944.26
2019-05-15T05:20:19.111Z,102941.02
2019-05-15T05:23:22.983Z,102941.84
2019-05-15T05:26:29.171Z,102937.34
2019-05-15T05:29:32.621Z,102934.23
2019-05-15T05:32:39.040Z,102939.92
2019-05-15T05:35:43.226Z,102939.78
2019-05-15T05:38:49.380Z,102937.94
2019-05-15T05:41:53.307Z,102944.45
2019-05-15T05:44:58.247Z,102950.95
2019-05-15T05:48:02.615Z,102945.59
2019-05-15T05:51:08.973Z,102949.25
2019-05-15T05:54:12.523Z,102954.17
2019-05-15T05:57:16.319Z,102950.88
2019-05-15T06:00:24.089Z,102956.00
2019-05-15T06:03:28.314Z,102948.75
2019-05-15T06:06:32.386Z,102952.70
2019-05-15T06:09:38.035Z,102948.69
2019-05-15T06:12:42.423Z,102943.59
2019-05-15T06:15:48.875Z,102941.06
2019-05-15T06:18:52.541Z,102940.45
2019-05-15T06:22:00.711Z,102936.39
2019-05-15T06:25:05.044Z,102938.90
2019-05-15T06:28:09.199Z,102937.73
2019-05-15T06:31:13.582Z,102940.06
2019-05-15T06:34:18.015Z,102939.33
2019-05-15T06:37:22.039Z,102947.00
2019-05-15T06:40:28.735Z,102943.14
2019-05-15T06:43:31.699Z,102940.56
2019-05-15T06:46:35.597Z,102939.28
2019-05-15T06:49:39.470Z,102942.44
2019-05-15T06:52:43.297Z,102946.88
2019-05-15T06:55:48.623Z,102942.01
2019-05-15T06:58:52.780Z,102940.23
2019-05-15T07:01:59.414Z,102935.78
2019-05-15T07:05:02.314Z,102935.30
2019-05-15T07:08:08.887Z,102928.62
2019-05-15T07:11:11.910Z,102933.48
2019-05-15T07:14:18.043Z,102936.61
2019-05-15T07:17:21.480Z,102929.36
2019-05-15T07:20:28.344Z,102935.13
2019-05-15T07:23:31.224Z,102930.16
2019-05-15T07:26:35.084Z,102932.83
2019-05-15T07:29:41.328Z,102928.78
2019-05-15T07:32:45.365Z,102921.63
2019-05-15T07:35:49.748Z,102922.53
2019-05-15T07:38:53.779Z,102917.59
2019-05-15T07:41:57.881Z,102929.64
2019-05-15T07:45:01.841Z,102925.15
2019-05-15T07:48:05.863Z,102927.65
2019-05-15T07:51:11.680Z,102928.46
2019-05-15T07:54:15.338Z,102926.23
2019-05-15T07:57:19.563Z,102926.75
2019-05-15T08:00:24.111Z,102914.19
2019-05-15T08:03:29.205Z,102915.98
2019-05-15T08:06:33.438Z,102914.53
2019-05-15T08:09:39.079Z,102917.56
2019-05-15T08:12:42.813Z,102915.23
2019-05-15T08:15:48.847Z,102916.05
2019-05-15T08:18:52.310Z,102915.27
2019-05-15T08:21:58.190Z,102905.63
2019-05-15T08:25:01.862Z,102904.68
2019-05-15T08:28:08.352Z,102900.34
2019-05-15T08:31:11.493Z,102904.26
2019-05-15T08:34:16.404Z,102895.61
2019-05-15T08:37:20.766Z,102893.81
2019-05-15T08:40:24.660Z,102893.80
2019-05-15T08:43:31.206Z,102890.70
2019-05-15T08:46:34.291Z,102890.54
2019-05-15T08:49:40.895Z,102890.86
2019-05-15T08:52:43.967Z,102881.95
2019-05-15T08:55:48.176Z,102884.36
2019-05-15T08:58:52.041Z,102880.51
2019-05-15T09:01:58.165Z,102880.20
2019-05-15T09:05:01.673Z,102875.70
2019-05-15T09:08:05.584Z,102868.58
2019-05-15T09:11:09.755Z,102856.75
2019-05-15T09:14:15.459Z,102861.20
2019-05-15T09:17:19.569Z,102854.75
2019-05-15T09:20:23.596Z,102846.22
2019-05-15T09:23:28.893Z,102848.91
2019-05-15T09:26:40.126Z,102846.36
2019-05-15T09:29:40.102Z,102844.48
2019-05-15T09:32:44.113Z,102844.34
2019-05-15T09:35:49.471Z,102840.13
2019-05-15T09:39:00.145Z,102839.84
2019-05-15T09:42:08.479Z,102846.03
2019-05-15T09:45:12.932Z,102837.48
2019-05-15T09:48:19.616Z,102838.69
2019-05-15T09:51:22.537Z,102834.52
2019-05-15T09:54:29.062Z,102825.75
2019-05-15T09:57:32.565Z,102817.45
2019-05-15T10:00:38.634Z,102815.95
2019-05-15T10:03:44.560Z,102812.69
2019-05-15T10:06:48.705Z,102808.95
2019-05-15T10:09:52.785Z,102806.66
2019-05-15T10:12:59.916Z,102807.69
2019-05-15T10:16:04.136Z,102810.81
2019-05-15T10:19:08.939Z,102811.05
2019-05-15T10:22:13.262Z,102800.67
2019-05-15T10:25:19.011Z,102791.99
2019-05-15T10:28:22.890Z,102794.06
2019-05-15T10:31:28.289Z,102798.21
2019-05-15T10:34:32.505Z,102791.69
2019-05-15T10:37:38.832Z,102785.28
2019-05-15T10:40:58.548Z,102786.63
2019-05-15T10:43:55.978Z,102786.47
2019-05-15T10:46:53.333Z,102774.78
2019-05-15T10:49:57.322Z,102779.33
2019-05-15T10:53:01.182Z,102780.77
2019-05-15T10:56:05.161Z,102783.20
2019-05-15T10:59:08.964Z,102780.60
2019-05-15T11:02:12.935Z,102774.31
2019-05-15T11:05:17.983Z,102774.03
2019-05-15T11:08:22.142Z,102779.56
2019-05-15T11:11:25.979Z,102776.39
2019-05-15T11:14:29.966Z,102769.34
2019-05-15T11:17:33.903Z,102766.84
2019-05-15T11:20:40.934Z,102764.89
2019-05-15T11:23:43.352Z,102766.97
2019-05-15T11:26:49.959Z,102763.47
2019-05-15T11:29:53.004Z,102750.62
2019-05-15T11:32:58.721Z,102753.17
2019-05-15T11:36:06.000Z,102747.19
2019-05-15T11:39:08.537Z,102740.12
2019-05-15T11:42:12.445Z,102746.17
2019-05-15T11:45:18.521Z,102743.16
2019-05-15T11:48:22.364Z,102736.02
2019-05-15T11:51:28.575Z,102729.67
2019-05-15T11:54:31.917Z,102732.80
2019-05-15T11:57:42.619Z,102734.09
2019-05-15T12:00:41.520Z,102732.02
2019-05-15T12:03:45.381Z,102723.05
2019-05-15T12:06:58.920Z,102726.58
2019-05-15T12:09:55.006Z,102730.84
2019-05-15T12:12:59.654Z,102729.49
2019-05-15T12:16:03.557Z,102724.63
2019-05-15T12:22:13.189Z,102723.88
2019-05-15T12:25:17.191Z,102721.05
2019-05-15T12:28:21.080Z,102721.53
2019-05-15T12:31:24.969Z,102714.43
2019-05-15T12:34:29.067Z,102711.13
2019-05-15T12:37:32.881Z,102715.83
2019-05-15T13:02:18.577Z,102703.75
2019-05-15T13:05:21.789Z,102699.55
2019-05-15T13:08:25.717Z,102692.91
2019-05-15T13:11:29.695Z,102688.45
2019-05-15T13:14:33.748Z,102683.16
2019-05-15T13:17:38.801Z,102681.97
2019-05-15T13:20:42.939Z,102674.98
2019-05-15T13:23:48.106Z,102685.45
2019-05-15T13:26:52.158Z,102685.14
2019-05-15T13:29:58.279Z,102681.92
2019-05-15T13:33:01.711Z,102679.94
2019-05-15T13:36:05.649Z,102678.26
2019-05-15T13:39:09.597Z,102678.09
2019-05-15T13:42:13.501Z,102683.27
2019-05-15T13:45:18.408Z,102678.56
2019-05-15T13:48:22.313Z,102671.11
2019-05-15T13:51:28.830Z,102676.45
2019-05-15T13:54:31.719Z,102679.00
2019-05-15T13:57:38.077Z,102677.87
2019-05-15T14:00:41.372Z,102677.03
2019-05-15T14:03:45.285Z,102676.97
2019-05-15T14:06:49.081Z,102671.38
2019-05-15T14:09:52.943Z,102664.13
2019-05-15T14:12:58.372Z,102667.05
2019-05-15T14:16:02.342Z,102661.70
2019-05-15T14:19:08.304Z,102662.20
2019-05-15T14:22:12.039Z,102666.92
2019-05-15T14:25:18.134Z,102666.70
2019-05-15T14:28:21.795Z,102661.13
2019-05-15T14:31:27.892Z,102656.91
2019-05-15T14:34:31.201Z,102646.62
2019-05-15T14:37:35.097Z,102651.98
2019-05-15T14:40:39.057Z,102640.20
2019-05-15T14:43:42.950Z,102651.41
2019-05-15T14:46:50.578Z,102656.96
2019-05-15T14:49:52.486Z,102644.00
2019-05-15T14:52:58.428Z,102649.34
2019-05-15T14:56:02.091Z,102647.16
2019-05-15T14:59:08.500Z,102645.14
2019-05-15T15:02:11.991Z,102643.91
2019-05-15T15:05:15.942Z,102632.91
2019-05-15T15:08:25.288Z,102631.04
2019-05-15T15:11:28.497Z,102635.50
2019-05-15T15:14:32.621Z,102625.75
2019-05-15T15:17:38.671Z,102629.09
2019-05-15T15:20:42.179Z,102619.69
2019-05-15T15:23:48.117Z,102621.62
2019-05-15T15:26:51.660Z,102621.91
2019-05-15T15:29:55.538Z,102618.78
2019-05-15T15:33:01.188Z,102622.79
2019-05-15T15:36:05.071Z,102616.03
2019-05-15T15:39:09.062Z,102619.07
2019-05-15T15:42:12.899Z,102613.75
2019-05-15T15:45:19.272Z,102616.63
2019-05-15T15:48:22.859Z,102609.98
2019-05-15T15:51:28.574Z,102614.16
2019-05-15T15:54:32.409Z,102607.03
2019-05-15T15:57:36.286Z,102611.36
2019-05-15T16:00:40.232Z,102609.80
2019-05-15T16:03:44.131Z,102604.77
2019-05-15T16:06:48.458Z,102600.92
2019-05-15T16:09:52.299Z,102605.05
2019-05-15T16:12:58.216Z,102596.52
2019-05-15T16:16:02.006Z,102601.01
2019-05-15T16:19:05.848Z,102593.47
2019-05-15T16:22:09.772Z,102593.02
2019-05-15T16:25:13.861Z,102599.58
2019-05-15T16:28:18.487Z,102593.72
2019-05-15T16:31:22.649Z,102593.13
2019-05-15T16:34:28.376Z,102600.94
2019-05-15T16:37:31.988Z,102594.34
2019-05-15T16:40:38.121Z,102592.70
2019-05-15T16:43:41.491Z,102589.36
2019-05-15T16:46:47.995Z,102595.28
2019-05-15T16:49:50.961Z,102597.38
2019-05-15T16:52:54.913Z,102583.11
2019-05-15T16:55:58.888Z,102587.30
2019-05-15T16:59:03.429Z,102584.05
2019-05-15T17:02:08.747Z,102584.55
2019-05-15T17:05:12.909Z,102587.36
2019-05-15T17:08:17.945Z,102591.67
2019-05-15T17:11:22.125Z,102585.61
2019-05-15T17:14:28.573Z,102584.88
2019-05-15T17:17:31.551Z,102582.67
2019-05-15T17:20:35.508Z,102585.03
2019-05-15T17:23:39.344Z,102591.47
2019-05-15T17:26:43.295Z,102578.47
2019-05-15T17:29:49.059Z,102579.97
2019-05-15T17:32:52.742Z,102583.31
2019-05-15T17:35:58.048Z,102577.23
2019-05-15T17:39:01.995Z,102577.85
2019-05-15T17:42:05.898Z,102581.55
2019-05-15T17:45:10.090Z,102580.05
2019-05-15T17:48:14.011Z,102575.16
2019-05-15T17:51:17.872Z,102580.54
2019-05-15T17:54:21.759Z,102582.41
2019-05-15T17:57:33.716Z,102577.25
2019-05-15T18:00:39.386Z,102578.17
2019-05-15T18:03:43.514Z,102581.34
2019-05-15T18:06:48.398Z,102593.54
2019-05-15T18:09:54.420Z,102586.98
2019-05-15T18:12:58.745Z,102595.61
2019-05-15T18:16:04.217Z,102595.19
2019-05-15T18:19:45.404Z,102590.48
2019-05-15T18:47:52.489Z,102605.55
2019-05-15T18:57:13.017Z,102615.23
2019-05-15T18:59:48.718Z,102620.25
2019-05-15T19:03:22.624Z,102619.02
2019-05-15T19:06:45.200Z,102623.55
2019-05-15T19:10:00.477Z,102622.26
2019-05-15T19:13:28.614Z,102620.89
2019-05-15T19:17:09.854Z,102619.09
2019-05-15T19:20:28.416Z,102621.42
2019-05-15T19:23:50.726Z,102615.84
2019-05-15T19:27:47.169Z,102623.16
2019-05-15T19:30:58.349Z,102615.72
2019-05-15T19:34:19.466Z,102617.11
2019-05-15T19:38:09.908Z,102620.27
2019-05-15T19:41:54.528Z,102622.93
2019-05-15T19:44:59.031Z,102627.93
2019-05-15T19:48:03.924Z,102629.80
2019-05-15T19:51:09.154Z,102630.75
2019-05-15T19:54:13.921Z,102632.61
2019-05-15T19:57:18.803Z,102632.64
2019-05-15T20:00:23.294Z,102630.00
2019-05-15T20:03:28.479Z,102632.67
2019-05-15T20:06:33.061Z,102628.28
2019-05-15T20:09:38.377Z,102633.19
2019-05-15T20:12:42.797Z,102633.19
2019-05-15T20:15:48.558Z,102635.46
2019-05-15T20:18:53.086Z,102630.62
2019-05-15T20:21:58.323Z,102625.77
2019-05-15T20:25:03.001Z,102627.55
2019-05-15T20:28:08.413Z,102629.79
2019-05-15T20:31:13.218Z,102634.65
2019-05-15T20:34:17.796Z,102627.56
2019-05-15T20:37:22.261Z,102624.03
2019-05-15T20:40:28.157Z,102618.71
2019-05-15T20:43:32.827Z,102621.36
2019-05-15T20:46:39.210Z,102624.05
2019-05-15T20:49:43.953Z,102624.50
2019-05-15T20:52:49.175Z,102632.91
2019-05-15T20:55:54.148Z,102632.90
2019-05-15T20:58:59.002Z,102633.34
2019-05-15T21:02:03.557Z,102631.11
2019-05-15T21:05:09.044Z,102627.56
2019-05-15T21:08:13.808Z,102628.89
2019-05-15T21:11:18.414Z,102623.14
2019-05-15T21:14:23.441Z,102628.45
2019-05-15T21:17:28.280Z,102624.47
2019-05-15T21:20:33.138Z,102624.02
2019-05-15T21:23:38.770Z,102626.67
2019-05-15T21:26:43.017Z,102615.15
2019-05-15T21:29:49.052Z,102612.94
2019-05-15T21:32:54.101Z,102612.94
2019-05-15T21:35:58.975Z,102610.71
2019-05-15T21:39:04.495Z,102608.04
2019-05-15T21:42:08.998Z,102607.59
2019-05-15T21:45:14.939Z,102609.80
2019-05-15T21:48:19.047Z,102604.02
2019-05-15T21:51:23.422Z,102606.22
2019-05-15T21:54:28.195Z,102604.41
2019-05-15T21:57:36.444Z,102603.08
2019-05-15T22:00:42.149Z,102605.27
2019-05-15T22:03:48.180Z,102603.42
2019-05-15T22:06:52.578Z,102605.18
2019-05-15T22:09:56.763Z,102600.27
2019-05-15T22:13:01.002Z,102602.48
2019-05-15T22:16:05.376Z,102602.91
2019-05-15T22:19:10.663Z,102602.47
2019-05-15T22:22:14.849Z,102598.91
2019-05-15T22:25:19.448Z,102599.75
2019-05-15T22:28:23.767Z,102592.69
2019-05-15T22:31:28.015Z,102588.25
2019-05-15T22:34:32.175Z,102588.22
2019-05-15T22:37:38.686Z,102589.92
2019-05-15T22:40:42.570Z,102581.95
2019-05-15T22:43:48.490Z,102579.27
2019-05-15T22:46:52.349Z,102579.23
2019-05-15T22:49:56.276Z,102580.16
2019-05-15T22:53:00.397Z,102579.22
2019-05-15T22:56:04.475Z,102571.69
2019-05-15T22:59:08.656Z,102569.90
2019-05-15T23:02:13.058Z,102561.02
2019-05-15T23:05:24.963Z,102566.75
2019-05-15T23:08:22.788Z,102566.72
2019-05-15T23:11:26.907Z,102568.92
2019-05-15T23:14:30.838Z,102559.61
2019-05-15T23:17:34.711Z,102558.70
2019-05-15T23:20:38.905Z,102554.69
2019-05-15T23:23:42.911Z,102548.91
2019-05-15T23:26:47.773Z,102552.84
2019-05-15T23:29:51.871Z,102551.87
2019-05-15T23:32:58.082Z,102548.29
2019-05-15T23:36:02.323Z,102539.44
2019-05-15T23:39:07.838Z,102553.09
2019-05-15T23:42:11.874Z,102547.75
2019-05-15T23:45:17.896Z,102544.23
2019-05-15T23:48:21.566Z,102543.34
2019-05-15T23:51:27.810Z,102530.11
2019-05-15T23:54:31.049Z,102537.09
2019-05-15T23:57:34.895Z,102530.02
